Wetterstation Vordersexau
Wetterdaten: Juni 2015
Datum Temp. A. Feuchte A. Luftdruck Regen Wind Richtung Taupunkt Windchill Windben
01.06.2015 17,6 C 71 % 1014,6 hPa 0,0 l/m 3,7 km/h W-NW 12,2 C 17,1 C 2,1 km/h
02.06.2015 20,3 C 63 % 1015,9 hPa 0,0 l/m 9,7 km/h NO 12,1 C 19,4 C 5,4 km/h
03.06.2015 22,6 C 55 % 1019,6 hPa 0,0 l/m 3,0 km/h N-NO 11,6 C 22,5 C 1,7 km/h
04.06.2015 22,4 C 62 % 1021,1 hPa 0,0 l/m 1,6 km/h O-SO 13,9 C 22,3 C 0,9 km/h
05.06.2015 26,1 C 59 % 1016,9 hPa 0,0 l/m 0,6 km/h W-NW 16,2 C 26,1 C 0,3 km/h
06.06.2015 25,8 C 62 % 1019,0 hPa 6,2 l/m 2,3 km/h N-NO 17,3 C 25,6 C 1,3 km/h
07.06.2015 23,8 C 64 % 1021,4 hPa 0,0 l/m 2,5 km/h N-NO 16,0 C 23,6 C 1,4 km/h
08.06.2015 16,5 C 78 % 1019,8 hPa 0,4 l/m 1,9 km/h N-NO 12,6 C 16,3 C 1,1 km/h
09.06.2015 16,0 C 71 % 1019,0 hPa 0,0 l/m 2,1 km/h N-NO 10,7 C 15,6 C 1,2 km/h
10.06.2015 18,0 C 69 % 1018,3 hPa 0,0 l/m 0,9 km/h N-NO 12,1 C 18,0 C 0,5 km/h
11.06.2015 22,1 C 66 % 1014,3 hPa 0,0 l/m 1,7 km/h O-NO 14,8 C 22,1 C 1,0 km/h
12.06.2015 21,2 C 71 % 1009,4 hPa 7,5 l/m 3,0 km/h SO 15,1 C 20,9 C 1,7 km/h
13.06.2015 21,3 C 66 % 1009,5 hPa 0,0 l/m 5,7 km/h NO 14,3 C 20,8 C 3,2 km/h
14.06.2015 21,0 C 74 % 1007,5 hPa 15,7 l/m 2,8 km/h S 15,9 C 20,8 C 1,6 km/h
15.06.2015 17,9 C 81 % 1012,2 hPa 13,7 l/m 0,0 km/h SO 14,6 C 17,9 C 0,0 km/h
16.06.2015 17,5 C 78 % 1016,5 hPa 0,0 l/m 0,9 km/h SO 13,7 C 17,5 C 0,5 km/h
17.06.2015 18,4 C 64 % 1019,4 hPa 0,0 l/m 2,3 km/h N-NO 10,8 C 18,3 C 1,3 km/h
18.06.2015 14,7 C 81 % 1016,3 hPa 5,0 l/m 1,2 km/h SO 11,4 C 14,5 C 0,7 km/h
19.06.2015 16,1 C 68 % 1016,2 hPa 0,4 l/m 0,2 km/h NW 9,9 C 16,1 C 0,1 km/h
20.06.2015 14,4 C 76 % 1018,0 hPa 2,5 l/m 0,9 km/h NW 10,2 C 14,3 C 0,5 km/h
21.06.2015 15,8 C 78 % 1016,4 hPa 0,8 l/m 3,4 km/h S-SO 11,9 C 15,5 C 1,9 km/h
22.06.2015 16,9 C 74 % 1010,5 hPa 1,7 l/m 5,4 km/h N-NO 12,0 C 16,1 C 3,0 km/h
23.06.2015 15,3 C 69 % 1012,7 hPa 1,2 l/m 2,2 km/h W-NW 9,3 C 15,0 C 1,2 km/h
24.06.2015 17,7 C 62 % 1019,0 hPa 0,0 l/m 3,1 km/h NO 9,5 C 17,5 C 1,7 km/h
25.06.2015 19,7 C 61 % 1020,2 hPa 0,0 l/m 2,6 km/h N-NO 11,1 C 19,5 C 1,4 km/h
26.06.2015 21,5 C 59 % 1018,8 hPa 0,0 l/m 0,5 km/h NO 12,1 C 21,5 C 0,3 km/h
27.06.2015 21,2 C 64 % 1015,8 hPa 0,4 l/m 2,8 km/h N-NO 13,7 C 21,0 C 1,6 km/h
28.06.2015 21,6 C 58 % 1018,5 hPa 0,0 l/m 1,0 km/h SO 11,6 C 21,6 C 0,6 km/h
29.06.2015 22,7 C 62 % 1018,4 hPa 0,0 l/m 0,8 km/h SO 13,8 C 22,7 C 0,4 km/h
30.06.2015 24,9 C 61 % 1016,9 hPa 0,0 l/m 2,6 km/h NO 16,1 C 24,9 C 1,4 km/h
Min-Datum 24.06.15 03.06.15 22.06.15 12 Tage 01.06.15 - 24.06.15 24.06.15 01.06.15
Min-Zeit 05:51 17:51 20:51 - 00:51 - 05:51 05:51 00:51
Minimum 6,9 C 25 % 1004,8 hPa - 0,0 km/h - 4,6 C 6,9 C 0,0 km/h
Max-Datum 05.06.15 16.06.15 04.06.15 14.06.15 22.06.15 - 06.06.15 05.06.15 22.06.15
Max-Zeit 17:51 23:51 06:51 15:51 21:51 - 08:51 17:51 21:51
Maximum 39,8 C 85 % 1023,2 hPa 15,7 l/m 36,3 km/h
N-NO
- 21,2 C 39,8 C 20,2 km/h
N-NO
Durchschnitt 19,7 C 68 % 1016,4 hPa #55,5 l/m 2,4 km/h N-NO 12,9 C 19,5 C 1,3 km/h

Durchschnitt Minimum Temp.12,1 C
Durchschnitt Maximum Temp.28,4 C
www.sexauwetter.de